Time;durP1;ratioP1;P1;durP2;ratioP2;P2;SDS_P1;SDS_P2;PMS_P1;PMS_P2;Temp;Humidity;BMP_temperature;BMP_pressure;BME280_temperature;BME280_humidity;BME280_pressure;Samples;Min_cycle;Max_cycle;Signal;HPM_P1;HPM_P2
2023/03/19 00:01:09;;;;;;;;;8.50;7.75;;;;;13.69;57.10;100749.28;5004561;28;45960;-68
2023/03/19 00:03:34;;;;;;;;;9.25;9.25;;;;;13.69;57.47;100756.34;5008696;28;48689;-69
2023/03/19 00:06:00;;;;;;;;;8.25;7.75;;;;;13.68;57.49;100758.09;5017469;28;45336;-69
2023/03/19 00:08:26;;;;;;;;;7.50;7.50;;;;;13.68;57.32;100765.19;5018808;28;45576;-69
2023/03/19 00:10:51;;;;;;;;;9.75;8.25;;;;;13.65;57.53;100761.69;5018407;28;45231;-69
2023/03/19 00:13:17;;;;;;;;;6.00;5.25;;;;;13.65;57.27;100756.41;5018384;28;45207;-69
2023/03/19 00:15:43;;;;;;;;;10.25;9.25;;;;;13.63;57.31;100765.28;5018944;28;45382;-69
2023/03/19 00:18:09;;;;;;;;;8.75;7.00;;;;;13.63;57.48;100765.28;5018567;28;45615;-69
2023/03/19 00:20:34;;;;;;;;;6.25;6.00;;;;;13.62;57.45;100763.56;5018345;28;45440;-69
2023/03/19 00:22:59;;;;;;;;;6.75;5.75;;;;;13.62;57.34;100766.19;5018626;28;45257;-69
2023/03/19 00:25:25;;;;;;;;;6.00;6.00;;;;;13.64;57.46;100777.59;5018514;28;45307;-69
2023/03/19 00:27:51;;;;;;;;;0.00;0.00;;;;;13.62;57.38;100775.00;5018447;28;45494;-69
2023/03/19 00:30:17;;;;;;;;;7.25;7.25;;;;;13.60;57.59;100768.88;5018270;28;46236;-69
2023/03/19 00:32:42;;;;;;;;;9.00;7.25;;;;;13.61;57.50;100773.25;5017315;28;45330;-68
2023/03/19 00:35:08;;;;;;;;;8.00;6.25;;;;;13.61;57.29;100769.72;5018564;28;45387;-69
2023/03/19 00:37:34;;;;;;;;;8.25;7.00;;;;;13.60;57.25;100768.03;5018391;28;45389;-69
2023/03/19 00:40:00;;;;;;;;;4.75;4.75;;;;;13.59;57.50;100769.78;5018230;28;45398;-69
2023/03/19 00:42:26;;;;;;;;;7.75;6.00;;;;;13.58;57.34;100770.69;5018384;28;45298;-69
2023/03/19 00:44:51;;;;;;;;;7.25;6.00;;;;;13.58;57.38;100781.25;5017956;28;45233;-69
2023/03/19 00:47:17;;;;;;;;;8.50;7.25;;;;;13.55;57.39;100773.41;5018076;28;45418;-68
2023/03/19 00:49:42;;;;;;;;;7.00;7.00;;;;;13.58;57.74;100781.25;5011368;28;45296;-69
2023/03/19 00:52:07;;;;;;;;;4.75;4.75;;;;;13.58;57.34;100783.88;5009353;28;45290;-68
2023/03/19 00:54:33;;;;;;;;;5.25;5.25;;;;;13.57;57.77;100787.47;5012865;28;46110;-69
2023/03/19 00:56:58;;;;;;;;;5.25;5.25;;;;;13.59;57.56;100790.91;5016942;28;45327;-69
2023/03/19 00:59:24;;;;;;;;;6.50;5.00;;;;;13.57;57.29;100791.84;5017774;28;46209;-69
2023/03/19 01:01:50;;;;;;;;;7.75;7.25;;;;;13.59;57.32;100790.91;4998502;28;45246;-68
2023/03/19 01:04:16;;;;;;;;;5.75;5.00;;;;;13.59;57.21;100790.06;5012444;28;45378;-69
2023/03/19 01:06:42;;;;;;;;;5.00;5.00;;;;;13.60;57.51;100792.66;5018098;28;45543;-69
2023/03/19 01:09:08;;;;;;;;;5.50;5.50;;;;;13.60;57.24;100791.78;5033127;28;47285;-69
2023/03/19 01:11:33;;;;;;;;;5.75;5.00;;;;;13.52;57.23;100778.78;5033472;28;45727;-69
2023/03/19 01:13:59;;;;;;;;;5.25;5.25;;;;;13.59;57.55;100795.31;5017819;28;45247;-69
2023/03/19 01:16:26;;;;;;;;;5.75;5.75;;;;;13.58;57.56;100788.31;5017973;28;45249;-69
2023/03/19 01:18:52;;;;;;;;;6.00;6.00;;;;;13.56;57.39;100788.34;5017658;28;47107;-68
2023/03/19 01:21:18;;;;;;;;;6.00;6.00;;;;;13.57;57.64;100797.13;5033149;28;45298;-68
2023/03/19 01:23:43;;;;;;;;;5.75;4.50;;;;;13.56;57.48;100798.91;5018073;28;45450;-69
2023/03/19 01:26:08;;;;;;;;;1.25;0.75;;;;;13.53;57.18;100796.34;5018008;28;45403;-69
2023/03/19 01:28:34;;;;;;;;;4.75;4.75;;;;;13.51;57.59;100806.09;5017480;28;45468;-68
2023/03/19 01:31:00;;;;;;;;;4.75;4.00;;;;;13.51;57.63;100800.81;5018125;27;45324;-69
2023/03/19 01:33:26;;;;;;;;;5.00;5.00;;;;;13.49;57.65;100797.34;5017950;28;45392;-69
2023/03/19 01:35:51;;;;;;;;;5.50;4.00;;;;;13.49;57.63;100795.53;5017632;28;45525;-69
2023/03/19 01:38:17;;;;;;;;;3.00;3.00;;;;;13.46;57.48;100793.00;5017476;28;46100;-69
2023/03/19 01:40:44;;;;;;;;;4.50;4.00;;;;;13.46;57.21;100805.34;5017490;28;45338;-68
2023/03/19 01:43:28;;;;;;;;;6.50;4.25;;;;;13.45;57.59;100803.59;5017227;28;45228;-68
2023/03/19 01:46:01;;;;;;;;;6.00;6.00;;;;;13.41;57.49;100796.66;5017592;28;45214;-69
2023/03/19 01:48:38;;;;;;;;;5.00;4.50;;;;;13.42;57.83;100801.03;5015911;28;48025;-69
2023/03/19 01:51:06;;;;;;;;;7.50;5.75;;;;;13.40;57.83;100801.06;5010679;28;45402;-69
2023/03/19 01:53:33;;;;;;;;;4.50;4.50;;;;;13.40;57.40;100800.22;5004909;28;45299;-68
2023/03/19 01:56:18;;;;;;;;;6.50;6.00;;;;;13.39;57.62;100798.47;5017255;28;45409;-68
2023/03/19 01:58:47;;;;;;;;;7.00;5.50;;;;;13.38;57.34;100794.09;5015974;28;46540;-69
2023/03/19 02:01:13;;;;;;;;;5.75;5.00;;;;;13.36;57.49;100796.75;5002591;28;45347;-69
2023/03/19 02:03:39;;;;;;;;;6.00;6.00;;;;;13.35;57.40;100792.38;5008177;28;45247;-69
2023/03/19 02:06:05;;;;;;;;;5.25;5.25;;;;;13.37;57.51;100802.88;5017164;28;45442;-68
2023/03/19 02:08:32;;;;;;;;;5.00;4.50;;;;;13.35;57.40;100788.88;5017073;28;46994;-69
2023/03/19 02:10:59;;;;;;;;;4.00;4.00;;;;;13.38;57.32;100794.09;5016849;28;45232;-69
2023/03/19 02:13:26;;;;;;;;;8.25;5.75;;;;;13.35;57.53;100789.72;5017002;28;45314;-69
2023/03/19 02:15:52;;;;;;;;;5.50;4.50;;;;;13.37;57.41;100794.97;5016841;28;45375;-69
2023/03/19 02:18:18;;;;;;;;;10.75;6.75;;;;;13.37;57.31;100784.41;5017037;28;45298;-68
2023/03/19 02:20:55;;;;;;;;;5.50;5.50;;;;;13.36;57.43;100773.00;5016892;28;45231;-69
2023/03/19 02:23:26;;;;;;;;;5.25;5.25;;;;;13.34;57.57;100774.78;5017145;28;45412;-68
2023/03/19 02:26:00;;;;;;;;;7.00;6.75;;;;;13.33;57.36;100780.97;5016284;28;45335;-69
2023/03/19 02:28:26;;;;;;;;;6.50;6.50;;;;;13.31;57.80;100775.75;5016548;28;45252;-69
2023/03/19 02:30:51;;;;;;;;;5.00;3.50;;;;;13.30;57.57;100766.09;5016586;28;45322;-68
2023/03/19 02:33:18;;;;;;;;;4.75;4.00;;;;;13.31;57.72;100781.03;5016882;28;45290;-69
2023/03/19 02:35:49;;;;;;;;;6.50;6.50;;;;;13.30;57.49;100775.78;5016920;28;45544;-68
2023/03/19 02:38:14;;;;;;;;;9.50;7.00;;;;;13.28;57.66;100775.84;5016583;28;45867;-68
2023/03/19 02:40:46;;;;;;;;;9.75;9.75;;;;;13.27;57.75;100776.72;5016278;28;48518;-69
2023/03/19 02:43:12;;;;;;;;;9.00;8.00;;;;;13.28;57.59;100785.50;5016604;28;45236;-69
2023/03/19 02:45:37;;;;;;;;;7.00;7.00;;;;;13.26;57.74;100793.47;5016516;28;45153;-68
2023/03/19 02:48:03;;;;;;;;;8.00;8.00;;;;;13.25;57.54;100793.50;5016355;28;45464;-68
2023/03/19 02:50:28;;;;;;;;;6.75;4.00;;;;;13.25;57.45;100807.56;5010297;28;45415;-69
2023/03/19 02:52:53;;;;;;;;;8.25;8.00;;;;;13.24;57.54;100800.53;5003158;28;45316;-68
2023/03/19 02:55:20;;;;;;;;;4.50;4.50;;;;;13.22;57.31;100791.81;5017783;28;45275;-69
2023/03/19 02:57:46;;;;;;;;;7.50;7.50;;;;;13.21;57.47;100800.63;5019174;28;47383;-69
2023/03/19 03:00:12;;;;;;;;;8.25;8.25;;;;;13.17;57.91;100786.63;5013343;28;45377;-69
2023/03/19 03:02:38;;;;;;;;;4.50;4.50;;;;;13.16;57.56;100792.81;5001470;28;45335;-68
2023/03/19 03:05:05;;;;;;;;;11.25;9.50;;;;;13.07;57.47;100786.88;5019398;28;46456;-68
2023/03/19 03:07:31;;;;;;;;;7.00;7.00;;;;;13.13;57.64;100798.19;5019294;27;45598;-69
2023/03/19 03:09:57;;;;;;;;;7.00;7.00;;;;;13.10;57.90;100792.97;5019114;28;45187;-69
2023/03/19 03:12:22;;;;;;;;;8.25;7.25;;;;;13.08;57.77;100785.97;5019156;28;45461;-69
2023/03/19 03:14:48;;;;;;;;;10.25;9.25;;;;;13.05;57.88;100796.63;5019426;28;45492;-69
2023/03/19 03:17:14;;;;;;;;;6.75;6.00;;;;;13.04;57.77;100800.16;5018136;28;46960;-69
2023/03/19 03:19:39;;;;;;;;;10.50;9.00;;;;;13.01;58.18;100799.31;5017991;28;45356;-68
2023/03/19 03:22:05;;;;;;;;;8.00;8.00;;;;;13.02;57.98;100802.84;5019119;28;45310;-68
2023/03/19 03:24:30;;;;;;;;;11.00;9.00;;;;;12.99;57.92;100795.88;5050456;28;45416;-69
2023/03/19 03:26:56;;;;;;;;;10.50;8.00;;;;;13.00;57.71;100802.88;5019236;28;45305;-69
2023/03/19 03:29:21;;;;;;;;;8.00;7.25;;;;;12.98;58.04;100799.41;5019089;28;45298;-69
2023/03/19 03:31:46;;;;;;;;;7.00;7.00;;;;;12.95;57.85;100793.31;5019208;28;45654;-69
2023/03/19 03:34:12;;;;;;;;;10.00;8.75;;;;;12.97;57.86;100802.09;5017804;28;45298;-68
2023/03/19 03:36:37;;;;;;;;;7.50;7.50;;;;;12.96;58.02;100795.06;5018960;28;46904;-68
2023/03/19 03:39:03;;;;;;;;;9.00;9.00;;;;;12.95;57.85;100794.19;5019247;28;45409;-68
2023/03/19 03:41:28;;;;;;;;;9.75;8.75;;;;;12.95;58.01;100810.00;5019083;28;45214;-68
2023/03/19 03:43:54;;;;;;;;;7.75;7.75;;;;;12.94;58.09;100807.41;5018820;28;45223;-68
2023/03/19 03:46:19;;;;;;;;;6.75;6.00;;;;;12.93;57.84;100809.19;5018914;28;46156;-69
2023/03/19 03:48:48;;;;;;;;;5.50;5.50;;;;;12.92;58.05;100810.09;5017981;28;45400;-69
2023/03/19 03:51:13;;;;;;;;;9.25;9.00;;;;;12.92;58.13;100819.78;5011924;28;45327;-69
2023/03/19 03:53:38;;;;;;;;;9.00;7.75;;;;;12.89;58.04;100815.41;5007322;28;45488;-69
2023/03/19 03:56:04;;;;;;;;;9.00;8.00;;;;;12.84;58.10;100815.53;5018597;28;45452;-69
2023/03/19 03:58:30;;;;;;;;;8.00;6.00;;;;;12.87;58.32;100822.53;5018800;28;45356;-68
2023/03/19 04:00:55;;;;;;;;;7.75;7.50;;;;;12.87;58.20;100824.28;5006447;28;45334;-69
2023/03/19 04:03:23;;;;;;;;;8.25;8.25;;;;;12.86;58.43;100820.78;5022142;28;45432;-69
2023/03/19 04:05:48;;;;;;;;;8.00;7.50;;;;;12.86;58.26;100828.69;5018234;28;46078;-69
2023/03/19 04:08:14;;;;;;;;;10.00;10.00;;;;;12.86;58.21;100825.19;5017954;28;45203;-69
2023/03/19 04:10:41;;;;;;;;;6.00;5.50;;;;;12.86;58.30;100831.31;5018606;28;45251;-69
2023/03/19 04:13:08;;;;;;;;;9.50;7.50;;;;;12.84;58.14;100836.66;5018383;28;45394;-68
2023/03/19 04:15:34;;;;;;;;;8.00;6.75;;;;;12.81;58.20;100825.28;5018346;28;45467;-68
2023/03/19 04:17:59;;;;;;;;;7.25;6.75;;;;;12.84;58.52;100827.84;5017475;28;45429;-69
2023/03/19 04:20:24;;;;;;;;;7.00;7.00;;;;;12.82;58.55;100827.03;5018247;28;45446;-69
2023/03/19 04:22:50;;;;;;;;;7.75;7.75;;;;;12.82;58.27;100829.66;5018756;28;45405;-69
2023/03/19 04:25:17;;;;;;;;;11.00;8.75;;;;;12.81;58.48;100823.50;5018440;28;46115;-69
2023/03/19 04:27:42;;;;;;;;;9.50;8.25;;;;;12.80;58.57;100829.72;5018368;28;45414;-69
2023/03/19 04:30:10;;;;;;;;;10.00;7.75;;;;;12.81;58.59;100828.78;5018664;28;45295;-69
2023/03/19 04:32:35;;;;;;;;;6.25;6.25;;;;;12.79;57.75;100829.72;5018536;28;45489;-69
2023/03/19 04:35:02;;;;;;;;;8.25;7.00;;;;;12.77;58.24;100828.91;5018287;28;45340;-69
2023/03/19 04:37:27;;;;;;;;;8.25;8.25;;;;;12.77;58.71;100827.13;5018485;28;45265;-69
2023/03/19 04:39:53;;;;;;;;;9.00;7.75;;;;;12.75;58.33;100828.91;5018301;28;45393;-69
2023/03/19 04:42:19;;;;;;;;;7.25;7.00;;;;;12.76;58.57;100827.16;5018188;28;45527;-69
2023/03/19 04:44:44;;;;;;;;;8.75;7.75;;;;;12.74;58.75;100827.22;5016801;28;46175;-69
2023/03/19 04:47:09;;;;;;;;;9.00;8.00;;;;;12.73;58.62;100829.84;5017986;28;45459;-68
2023/03/19 04:49:35;;;;;;;;;6.75;6.75;;;;;12.73;58.65;100832.50;5011633;28;45364;-69
2023/03/19 04:52:01;;;;;;;;;9.50;7.50;;;;;12.73;58.81;100836.00;5010408;28;45418;-69
2023/03/19 04:54:27;;;;;;;;;9.75;8.00;;;;;12.73;58.56;100836.00;5013001;28;46071;-69
2023/03/19 04:56:53;;;;;;;;;7.00;7.00;;;;;12.71;58.51;100836.94;5018167;28;45388;-69
2023/03/19 04:59:18;;;;;;;;;8.00;8.00;;;;;12.70;58.69;100837.84;5017965;28;45435;-70
2023/03/19 05:01:44;;;;;;;;;9.00;8.00;;;;;12.71;58.59;100836.94;4999301;28;45232;-69
2023/03/19 05:04:09;;;;;;;;;8.00;6.00;;;;;12.71;58.77;100835.16;5012650;28;46114;-69
2023/03/19 05:06:36;;;;;;;;;10.25;9.75;;;;;12.71;58.91;100831.69;5033196;28;45202;-69
2023/03/19 05:09:02;;;;;;;;;11.00;9.00;;;;;12.69;58.81;100842.22;5018033;28;45266;-69
2023/03/19 05:11:28;;;;;;;;;8.75;8.75;;;;;12.65;58.70;100832.66;5017940;28;45193;-68
2023/03/19 05:13:53;;;;;;;;;10.50;9.00;;;;;12.68;59.04;100844.00;5017726;28;45171;-69
2023/03/19 05:16:19;;;;;;;;;12.00;10.25;;;;;12.68;59.13;100857.19;5017966;28;45383;-69
2023/03/19 05:18:44;;;;;;;;;9.00;8.00;;;;;12.65;59.06;100843.19;5017333;28;45359;-69
2023/03/19 05:21:11;;;;;;;;;9.50;8.25;;;;;12.65;59.01;100854.63;5016915;28;45389;-69
2023/03/19 05:23:36;;;;;;;;;7.75;7.50;;;;;12.65;59.16;100859.91;5017602;28;46092;-70
2023/03/19 05:26:02;;;;;;;;;12.00;8.25;;;;;12.61;59.14;100855.56;5017688;28;45278;-70
2023/03/19 05:28:27;;;;;;;;;8.00;8.00;;;;;12.59;58.80;100854.75;5017640;28;45379;-70
2023/03/19 05:30:53;;;;;;;;;11.00;9.00;;;;;12.61;59.07;100854.72;5017827;28;45385;-70
2023/03/19 05:33:18;;;;;;;;;9.75;9.75;;;;;12.61;59.23;100865.28;5017745;28;46128;-69
2023/03/19 05:35:44;;;;;;;;;11.00;11.00;;;;;12.59;59.35;100865.31;5017959;28;45361;-70
2023/03/19 05:38:10;;;;;;;;;10.75;10.25;;;;;12.58;59.60;100863.56;5017455;28;45228;-70
2023/03/19 05:40:36;;;;;;;;;11.00;10.00;;;;;12.58;59.25;100860.94;5016827;28;45438;-70
2023/03/19 05:43:01;;;;;;;;;7.00;6.50;;;;;12.55;59.39;100865.38;4998298;28;45535;-70
2023/03/19 05:45:26;;;;;;;;;10.00;7.75;;;;;12.55;59.49;100875.94;5017732;28;45231;-69
2023/03/19 05:47:52;;;;;;;;;11.25;10.75;;;;;12.52;59.38;100871.59;5017446;28;45297;-70
2023/03/19 05:50:18;;;;;;;;;10.25;9.00;;;;;12.54;59.39;100879.47;5011172;28;45165;-69
2023/03/19 05:52:43;;;;;;;;;9.50;7.50;;;;;12.52;59.66;100883.00;5003942;28;46123;-69
2023/03/19 05:55:09;;;;;;;;;14.00;12.00;;;;;12.50;59.63;100884.81;5017466;28;45297;-69
2023/03/19 05:57:34;;;;;;;;;10.75;9.25;;;;;12.49;59.31;100892.72;5032602;28;45262;-70
2023/03/19 06:00:00;;;;;;;;;13.50;11.00;;;;;12.49;59.55;100895.34;5012625;28;45390;-71
2023/03/19 06:02:26;;;;;;;;;11.75;10.25;;;;;12.48;59.74;100893.66;4998221;28;47076;-72
2023/03/19 06:04:51;;;;;;;;;9.50;9.50;;;;;12.47;59.63;100889.28;5017148;28;45459;-71
2023/03/19 06:07:17;;;;;;;;;9.00;8.00;;;;;12.47;59.46;100891.91;5017382;28;45277;-72
2023/03/19 06:09:42;;;;;;;;;8.00;7.75;;;;;12.46;59.87;100891.03;5017263;28;45365;-73
2023/03/19 06:12:07;;;;;;;;;10.75;8.50;;;;;12.48;59.93;100896.28;5016622;28;45421;-71
2023/03/19 06:14:33;;;;;;;;;12.50;11.50;;;;;12.49;59.48;100896.25;5003655;28;45379;-72
2023/03/19 06:16:58;;;;;;;;;3.25;1.75;;;;;12.51;59.55;100904.13;4995932;28;45649;-72
2023/03/19 06:19:23;;;;;;;;;11.00;10.25;;;;;12.51;59.87;100904.13;4995643;28;45486;-72
2023/03/19 06:21:49;;;;;;;;;13.75;12.50;;;;;12.50;60.02;100912.91;4995611;28;45300;-71
2023/03/19 06:24:14;;;;;;;;;13.50;12.25;;;;;12.50;59.80;100910.28;4995487;28;45427;-71
2023/03/19 06:26:39;;;;;;;;;11.50;10.50;;;;;12.47;59.85;100899.81;4994459;28;45323;-72
2023/03/19 06:29:05;;;;;;;;;13.00;11.00;;;;;12.47;59.89;100911.22;4996600;28;45223;-72
2023/03/19 06:31:30;;;;;;;;;12.25;11.50;;;;;12.47;59.91;100908.56;5011540;28;46934;-67
2023/03/19 06:33:56;;;;;;;;;9.75;8.25;;;;;12.49;59.72;100911.19;5018658;28;45157;-64
2023/03/19 06:36:21;;;;;;;;;15.50;12.25;;;;;12.48;59.87;100910.31;5020003;28;45417;-70
2023/03/19 06:38:47;;;;;;;;;12.25;10.50;;;;;12.46;60.08;100906.84;5019687;28;45544;-70
2023/03/19 06:41:12;;;;;;;;;11.50;11.50;;;;;12.48;60.06;100912.09;5019393;28;50223;-68
2023/03/19 06:43:40;;;;;;;;;10.50;9.50;;;;;12.44;59.87;100907.75;5019427;28;45695;-71
2023/03/19 06:46:07;;;;;;;;;14.00;13.25;;;;;12.46;60.09;100921.78;5007605;28;45331;-71
2023/03/19 06:48:33;;;;;;;;;13.25;12.00;;;;;12.46;60.16;100932.34;5002682;28;45677;-71
2023/03/19 06:50:58;;;;;;;;;11.00;10.25;;;;;12.44;60.17;100935.00;5012186;28;46204;-71
2023/03/19 06:53:24;;;;;;;;;14.00;12.50;;;;;12.44;60.17;100939.38;5006044;28;45142;-72
2023/03/19 06:55:49;;;;;;;;;14.25;13.00;;;;;12.43;60.32;100938.53;5019681;28;45446;-71
2023/03/19 06:58:15;;;;;;;;;17.00;14.50;;;;;12.42;60.28;100941.22;5017986;28;45871;-72
2023/03/19 07:00:40;;;;;;;;;16.75;15.25;;;;;12.42;60.37;100946.47;5009253;28;45401;-72
2023/03/19 07:03:06;;;;;;;;;12.75;12.75;;;;;12.43;60.41;100945.59;4998316;28;45673;-71
2023/03/19 07:05:31;;;;;;;;;14.00;14.00;;;;;12.42;60.53;100944.69;4999533;28;45375;-72
2023/03/19 07:07:57;;;;;;;;;11.25;11.25;;;;;12.44;60.46;100949.94;5016887;28;45417;-72
2023/03/19 07:10:22;;;;;;;;;15.00;15.00;;;;;12.46;60.70;100950.78;5019125;28;46122;-72
2023/03/19 07:12:47;;;;;;;;;18.50;14.00;;;;;12.46;60.44;100942.88;5018980;28;45255;-72
2023/03/19 07:15:13;;;;;;;;;12.75;12.50;;;;;12.46;60.62;100946.38;5019656;28;45613;-72
2023/03/19 07:17:38;;;;;;;;;15.25;15.25;;;;;12.47;60.61;100940.22;5019178;28;45619;-72
2023/03/19 07:20:04;;;;;;;;;12.75;11.75;;;;;12.48;60.47;100941.09;5019123;28;45461;-72
2023/03/19 07:22:29;;;;;;;;;15.00;13.25;;;;;12.49;60.45;100948.06;5019172;28;45468;-72
2023/03/19 07:24:55;;;;;;;;;15.75;15.00;;;;;12.48;60.58;100946.38;5019119;28;45957;-72
2023/03/19 07:27:20;;;;;;;;;15.75;13.50;;;;;12.48;60.75;100955.13;5018922;28;45399;-72
2023/03/19 07:29:46;;;;;;;;;15.25;15.25;;;;;12.48;60.58;100941.94;5019206;28;46085;-72
2023/03/19 07:32:11;;;;;;;;;16.00;14.00;;;;;12.48;60.71;100949.00;5017666;28;45308;-72
2023/03/19 07:34:36;;;;;;;;;16.50;15.25;;;;;12.47;60.86;100952.53;5018023;28;45452;-72
2023/03/19 07:37:02;;;;;;;;;12.75;12.75;;;;;12.48;60.95;100951.63;5019055;28;45309;-72
2023/03/19 07:39:27;;;;;;;;;14.75;14.00;;;;;12.47;60.84;100956.03;5019005;28;45363;-73
2023/03/19 07:41:53;;;;;;;;;18.50;16.25;;;;;12.45;60.73;100951.69;5018583;28;45256;-72
2023/03/19 07:44:18;;;;;;;;;16.25;14.50;;;;;12.48;60.77;100947.22;5019147;28;45278;-71
2023/03/19 07:46:44;;;;;;;;;20.00;16.00;;;;;12.48;60.88;100954.28;5018827;28;45192;-72
2023/03/19 07:49:09;;;;;;;;;14.75;14.00;;;;;12.48;60.64;100947.22;5014448;28;46273;-73
2023/03/19 07:51:34;;;;;;;;;14.75;13.25;;;;;12.47;60.85;100940.22;5043239;28;50213;-73
2023/03/19 07:54:00;;;;;;;;;15.75;15.50;;;;;12.52;60.67;100953.31;5010144;28;45287;-72
2023/03/19 07:56:25;;;;;;;;;15.00;15.00;;;;;12.55;60.89;100953.25;5018576;28;48388;-73
2023/03/19 07:58:51;;;;;;;;;14.75;11.75;;;;;12.57;60.51;100959.34;5033960;28;47170;-73
2023/03/19 08:01:16;;;;;;;;;14.25;13.75;;;;;12.56;60.68;100957.63;5003587;28;45233;-72
2023/03/19 08:03:42;;;;;;;;;16.25;15.00;;;;;12.59;61.02;100959.31;5024965;28;45375;-72
2023/03/19 08:06:07;;;;;;;;;18.75;15.25;;;;;12.60;60.87;100961.06;5018481;28;45587;-72
2023/03/19 08:08:33;;;;;;;;;18.50;13.75;;;;;12.62;60.55;100969.84;5018828;28;45198;-73
2023/03/19 08:10:59;;;;;;;;;16.25;15.00;;;;;12.63;60.81;100972.44;5018442;28;45523;-76
2023/03/19 08:13:25;;;;;;;;;14.25;14.25;;;;;12.62;61.00;100965.41;5018513;28;45499;-75
2023/03/19 08:15:51;;;;;;;;;16.50;14.75;;;;;12.63;60.89;100961.88;5017256;28;45637;-72
2023/03/19 08:18:16;;;;;;;;;14.50;12.75;;;;;12.66;60.84;100963.59;5018560;28;45377;-70
2023/03/19 08:20:43;;;;;;;;;18.00;16.75;;;;;12.67;60.88;100962.69;5018349;28;45337;-72
2023/03/19 08:23:09;;;;;;;;;14.50;13.75;;;;;12.70;60.71;100965.25;5019043;28;45234;-75
2023/03/19 08:25:34;;;;;;;;;17.25;12.00;;;;;12.72;60.84;100965.25;5017997;28;45344;-77
2023/03/19 08:28:00;;;;;;;;;14.25;12.25;;;;;12.75;60.72;100965.19;5018336;28;45260;-72
2023/03/19 08:30:26;;;;;;;;;15.25;14.25;;;;;12.75;60.66;100967.81;5017139;28;45274;-72
2023/03/19 08:32:51;;;;;;;;;15.50;14.00;;;;;12.79;60.82;100969.47;5016938;28;45244;-73
2023/03/19 08:35:17;;;;;;;;;14.50;14.50;;;;;12.83;60.82;100969.41;5018400;28;45394;-72
2023/03/19 08:37:42;;;;;;;;;15.50;15.00;;;;;12.87;60.71;100972.84;5018577;28;46222;-72
2023/03/19 08:40:08;;;;;;;;;14.75;13.75;;;;;12.89;60.57;100976.31;5018066;28;45303;-76
2023/03/19 08:42:34;;;;;;;;;12.75;12.75;;;;;12.93;61.07;100979.75;5018302;28;45233;-70
2023/03/19 08:44:59;;;;;;;;;11.25;11.25;;;;;12.98;60.82;100980.53;5017639;28;45317;-69
2023/03/19 08:47:25;;;;;;;;;13.00;11.50;;;;;13.00;60.76;100992.81;5018153;28;46212;-69
2023/03/19 08:49:51;;;;;;;;;14.00;13.50;;;;;13.04;61.00;100990.97;5011510;28;45695;-69
2023/03/19 08:52:18;;;;;;;;;14.75;11.75;;;;;13.06;60.85;100993.59;5007497;28;45326;-67
2023/03/19 08:54:44;;;;;;;;;11.50;10.50;;;;;13.09;61.02;100998.78;5015065;28;45321;-65
2023/03/19 08:57:09;;;;;;;;;14.75;12.50;;;;;13.15;60.68;101003.94;5017811;28;45250;-65
2023/03/19 08:59:36;;;;;;;;;10.25;9.50;;;;;13.15;60.77;100993.38;5015285;28;45858;-65
2023/03/19 09:02:01;;;;;;;;;12.25;9.00;;;;;13.21;61.03;101005.59;4998512;28;45243;-66
2023/03/19 09:04:27;;;;;;;;;8.75;8.50;;;;;13.25;60.96;101009.91;5015048;28;45510;-65
2023/03/19 09:06:52;;;;;;;;;9.50;8.25;;;;;13.26;60.49;101004.59;5018007;28;45476;-67
2023/03/19 09:09:19;;;;;;;;;7.00;7.00;;;;;13.29;60.47;101012.41;5016598;28;45252;-67
2023/03/19 09:11:45;;;;;;;;;7.75;7.00;;;;;13.34;60.74;101009.69;5017016;28;45439;-67
2023/03/19 09:14:12;;;;;;;;;6.50;5.00;;;;;13.30;60.78;101011.53;5017617;28;45326;-67
2023/03/19 09:16:39;;;;;;;;;4.75;4.75;;;;;13.38;60.52;101026.38;5017815;28;46211;-69
2023/03/19 09:19:04;;;;;;;;;10.00;9.50;;;;;13.37;60.49;101028.16;5017515;28;45245;-66
2023/03/19 09:21:30;;;;;;;;;7.00;7.00;;;;;13.40;60.46;101040.41;5017997;28;45208;-66
2023/03/19 09:23:56;;;;;;;;;7.50;7.00;;;;;13.38;60.40;101035.16;5017521;28;45314;-69
2023/03/19 09:26:21;;;;;;;;;8.25;8.00;;;;;13.42;59.92;101044.75;5033241;28;46117;-67
2023/03/19 09:28:46;;;;;;;;;5.75;5.00;;;;;13.43;60.16;101045.63;5017308;28;46450;-69
2023/03/19 09:31:11;;;;;;;;;5.50;4.50;;;;;13.46;60.27;101054.34;5017977;28;45618;-67
2023/03/19 09:33:37;;;;;;;;;4.75;4.50;;;;;13.47;60.05;101049.94;5016244;28;45437;-67
2023/03/19 09:36:03;;;;;;;;;6.00;5.75;;;;;13.48;59.99;101049.03;5017385;28;58010;-68
2023/03/19 09:38:28;;;;;;;;;6.25;5.00;;;;;13.50;60.13;101057.78;5015824;28;45416;-67
2023/03/19 09:41:11;;;;;;;;;6.75;4.00;;;;;13.53;60.12;101068.28;5017807;28;45476;-67
2023/03/19 09:43:48;;;;;;;;;4.00;3.00;;;;;13.56;60.00;101064.69;5017534;28;45181;-67
2023/03/19 09:46:19;;;;;;;;;7.75;5.00;;;;;13.55;60.02;101069.13;5016458;28;47927;-66
2023/03/19 09:48:51;;;;;;;;;5.00;3.50;;;;;13.61;60.07;101071.63;5016487;28;45322;-63
2023/03/19 09:51:45;;;;;;;;;6.25;6.25;;;;;13.64;60.10;101066.28;5010326;28;45379;-63
2023/03/19 09:54:45;;;;;;;;;5.75;4.75;;;;;13.67;59.88;101070.63;5010133;28;45255;-63
2023/03/19 09:57:11;;;;;;;;;8.00;6.75;;;;;13.69;59.58;101074.09;5012751;28;46342;-63
2023/03/19 09:59:38;;;;;;;;;10.00;7.50;;;;;13.72;59.47;101081.09;5015898;28;45510;-64
2023/03/19 10:02:27;;;;;;;;;11.00;9.25;;;;;13.75;59.46;101079.25;4997664;28;45450;-61
2023/03/19 10:05:22;;;;;;;;;7.75;7.25;;;;;13.76;59.85;101074.84;5004494;28;45364;-61
2023/03/19 10:07:56;;;;;;;;;9.75;8.25;;;;;13.79;59.92;101085.34;5016890;28;46385;-61
2023/03/19 10:10:35;;;;;;;;;6.25;6.25;;;;;13.79;59.84;101087.97;5016957;28;45361;-61
2023/03/19 10:13:14;;;;;;;;;6.25;5.00;;;;;13.81;59.13;101094.09;5017174;28;45269;-61
2023/03/19 10:15:43;;;;;;;;;8.75;6.00;;;;;13.81;59.33;101078.22;5016512;28;45373;-61
2023/03/19 10:18:27;;;;;;;;;9.00;6.00;;;;;13.83;59.53;101073.81;5017054;28;46948;-61
2023/03/19 10:21:08;;;;;;;;;4.00;4.00;;;;;13.84;59.14;101075.53;5016796;28;45333;-62
2023/03/19 10:23:33;;;;;;;;;4.00;4.00;;;;;13.87;59.13;101082.53;5015799;28;45268;-62
2023/03/19 10:26:02;;;;;;;;;5.75;5.75;;;;;13.90;59.08;101087.72;5016897;27;45642;-61
2023/03/19 10:28:28;;;;;;;;;5.75;5.75;;;;;13.91;59.08;101081.53;5016811;28;47214;-65
2023/03/19 10:30:54;;;;;;;;;7.00;4.75;;;;;13.94;59.05;101086.78;5016886;28;45353;-65
2023/03/19 10:33:27;;;;;;;;;5.75;5.25;;;;;13.97;59.36;101094.63;5016944;28;45198;-65
2023/03/19 10:36:10;;;;;;;;;3.00;2.00;;;;;13.98;59.34;101085.78;5017217;28;45232;-65
2023/03/19 10:38:42;;;;;;;;;2.25;2.25;;;;;14.01;58.84;101087.50;5016512;28;46337;-66
2023/03/19 10:41:35;;;;;;;;;4.75;4.50;;;;;14.03;59.17;101091.84;5016745;28;45346;-66
2023/03/19 10:44:05;;;;;;;;;3.75;3.25;;;;;14.03;59.03;101093.63;5016711;28;45199;-64
2023/03/19 10:46:40;;;;;;;;;3.00;3.00;;;;;14.05;59.45;101112.94;5016602;28;45359;-66
2023/03/19 10:49:13;;;;;;;;;8.50;5.00;;;;;14.05;58.99;101111.19;5012494;28;45447;-66
2023/03/19 10:51:44;;;;;;;;;3.50;3.50;;;;;14.00;59.39;101114.81;5010311;28;45519;-66
2023/03/19 10:54:26;;;;;;;;;4.50;4.00;;;;;13.94;59.08;101121.13;5009029;28;45353;-66
2023/03/19 10:56:56;;;;;;;;;6.50;5.50;;;;;13.87;59.25;101123.00;5016552;28;45329;-66
2023/03/19 10:59:39;;;;;;;;;5.00;5.00;;;;;13.80;59.23;101122.28;5016270;28;45352;-66
2023/03/19 11:02:26;;;;;;;;;6.50;6.50;;;;;13.79;59.22;101124.97;4998638;28;53396;-66
2023/03/19 11:05:11;;;;;;;;;6.00;5.25;;;;;13.72;59.13;101113.66;5016323;28;45243;-66
2023/03/19 11:07:37;;;;;;;;;9.00;8.00;;;;;13.65;59.25;101110.28;5016274;28;45265;-66
2023/03/19 11:10:02;;;;;;;;;10.75;9.25;;;;;13.64;59.01;101111.16;5016032;28;47121;-67
2023/03/19 11:12:34;;;;;;;;;11.00;9.50;;;;;13.60;59.24;101117.44;5015874;28;45165;-66
2023/03/19 11:15:02;;;;;;;;;9.25;9.25;;;;;13.58;59.42;101115.72;5016366;28;45297;-66
2023/03/19 11:17:49;;;;;;;;;8.75;8.75;;;;;13.55;58.89;101115.78;5018737;28;45555;-66
2023/03/19 11:20:14;;;;;;;;;10.00;7.75;;;;;13.53;59.24;101120.22;5018807;28;46503;-65